Time;durP1;ratioP1;P1;durP2;ratioP2;P2;SDS_P1;SDS_P2;PMS_P1;PMS_P2;Temp;Humidity;BMP_temperature;BMP_pressure;BME280_temperature;BME280_humidity;BME280_pressure;Samples;Min_cycle;Max_cycle;Signal;HPM_P1;HPM_P2
2023/08/05 00:02:25;;;;;;;5.22;2.83;;;13.00;99.90;;;;;;5024949;28;20057;-84
2023/08/05 00:04:50;;;;;;;5.38;2.83;;;12.90;99.90;;;;;;5023926;28;20559;-85
2023/08/05 00:07:16;;;;;;;5.10;2.65;;;12.90;99.90;;;;;;5027809;28;20033;-84
2023/08/05 00:09:42;;;;;;;4.72;2.80;;;12.90;99.90;;;;;;5023261;28;20018;-84
2023/08/05 00:12:08;;;;;;;3.92;3.08;;;12.90;99.90;;;;;;5025150;28;20920;-84
2023/08/05 00:14:34;;;;;;;6.55;2.88;;;12.90;99.90;;;;;;5025528;28;20050;-84
2023/08/05 00:17:00;;;;;;;5.57;3.00;;;12.90;99.90;;;;;;5025140;28;20121;-84
2023/08/05 00:19:26;;;;;;;4.55;3.05;;;12.90;99.90;;;;;;5017355;28;20105;-84
2023/08/05 00:21:51;;;;;;;5.05;2.58;;;12.90;99.90;;;;;;5011406;28;20548;-84
2023/08/05 00:24:17;;;;;;;6.15;3.33;;;12.90;99.90;;;;;;5023972;28;20025;-84
2023/08/05 00:26:42;;;;;;;5.82;3.70;;;12.90;99.90;;;;;;5024478;28;20030;-84
2023/08/05 00:29:09;;;;;;;4.45;2.70;;;12.90;99.90;;;;;;5030532;28;20030;-85
2023/08/05 00:31:34;;;;;;;3.88;3.40;;;12.80;99.90;;;;;;5023048;28;20053;-84
2023/08/05 00:34:00;;;;;;;4.32;3.15;;;12.80;99.90;;;;;;5022777;28;20041;-84
2023/08/05 00:36:26;;;;;;;8.18;3.35;;;12.80;99.90;;;;;;5022982;28;20432;-85
2023/08/05 00:38:51;;;;;;;3.15;2.42;;;12.80;99.90;;;;;;5024277;28;20432;-84
2023/08/05 00:41:17;;;;;;;2.83;2.63;;;12.70;99.90;;;;;;5025138;28;20769;-84
2023/08/05 00:43:43;;;;;;;6.72;2.80;;;12.70;99.90;;;;;;5020121;28;20492;-84
2023/08/05 00:46:09;;;;;;;7.32;3.22;;;12.70;99.90;;;;;;5024754;28;20025;-84
2023/08/05 00:48:35;;;;;;;3.38;3.00;;;12.70;99.90;;;;;;5020179;28;20032;-84
2023/08/05 00:51:01;;;;;;;4.72;2.85;;;12.60;99.90;;;;;;5027146;28;20037;-85
2023/08/05 00:53:29;;;;;;;4.95;2.75;;;12.60;99.90;;;;;;5022980;28;20096;-84
2023/08/05 00:55:54;;;;;;;4.38;2.90;;;12.60;99.90;;;;;;5027693;28;20039;-84
2023/08/05 00:58:21;;;;;;;4.20;2.58;;;12.60;99.90;;;;;;5023562;28;20025;-84
2023/08/05 01:00:47;;;;;;;5.57;3.05;;;12.60;99.90;;;;;;5017558;28;20051;-85
2023/08/05 01:03:13;;;;;;;6.57;2.90;;;12.60;99.90;;;;;;5019943;28;20026;-84
2023/08/05 01:05:40;;;;;;;6.72;2.92;;;12.60;99.90;;;;;;5016756;28;20022;-84
2023/08/05 01:08:07;;;;;;;4.90;2.95;;;12.70;99.90;;;;;;5023961;28;20037;-84
2023/08/05 01:10:33;;;;;;;7.45;2.88;;;12.70;99.90;;;;;;5022717;28;20102;-84
2023/08/05 01:12:59;;;;;;;6.38;4.00;;;12.70;99.90;;;;;;5027229;28;20764;-84
2023/08/05 01:15:24;;;;;;;5.97;2.60;;;12.70;99.90;;;;;;5021161;28;20030;-85
2023/08/05 01:17:53;;;;;;;6.82;3.67;;;12.80;99.90;;;;;;5029291;28;20040;-85
2023/08/05 01:20:21;;;;;;;5.18;3.60;;;12.80;99.90;;;;;;5021250;28;20562;-84
2023/08/05 01:22:53;;;;;;;4.10;2.92;;;12.80;99.90;;;;;;5021646;28;20045;-85
2023/08/05 01:25:31;;;;;;;4.45;3.38;;;12.80;99.90;;;;;;5023505;28;20014;-85
2023/08/05 01:27:59;;;;;;;5.07;3.33;;;12.80;99.90;;;;;;5013042;28;20021;-84
2023/08/05 01:30:26;;;;;;;4.97;2.97;;;12.80;99.90;;;;;;5024067;28;20045;-84
2023/08/05 01:32:52;;;;;;;3.42;2.80;;;12.80;99.90;;;;;;5023637;28;20032;-84
2023/08/05 01:35:21;;;;;;;5.10;2.63;;;12.80;99.90;;;;;;5025805;28;20026;-84
2023/08/05 01:37:46;;;;;;;5.20;2.80;;;12.80;99.90;;;;;;5013600;28;20049;-84
2023/08/05 01:40:13;;;;;;;3.13;2.80;;;12.80;99.90;;;;;;5018539;28;20053;-85
2023/08/05 01:42:38;;;;;;;8.80;2.75;;;12.90;99.90;;;;;;5022400;28;20824;-84
2023/08/05 01:45:05;;;;;;;5.03;3.22;;;12.90;99.90;;;;;;5022764;28;20058;-84
2023/08/05 01:47:30;;;;;;;4.50;2.67;;;12.90;99.90;;;;;;5024862;28;20020;-84
2023/08/05 01:49:56;;;;;;;4.60;3.00;;;12.90;99.90;;;;;;5020924;28;20021;-84
2023/08/05 01:52:24;;;;;;;4.45;3.38;;;12.90;99.90;;;;;;5019355;28;20079;-84
2023/08/05 01:54:50;;;;;;;6.88;2.88;;;12.90;99.90;;;;;;5007747;28;20022;-84
2023/08/05 01:57:15;;;;;;;4.85;3.22;;;12.90;99.90;;;;;;5021374;28;20399;-84
2023/08/05 01:59:41;;;;;;;5.68;3.80;;;12.90;99.90;;;;;;5024049;28;20025;-84
2023/08/05 02:02:07;;;;;;;3.47;2.83;;;13.00;99.90;;;;;;5022460;28;20068;-84
2023/08/05 02:04:32;;;;;;;5.07;3.20;;;13.00;99.90;;;;;;5014866;28;20439;-84
2023/08/05 02:06:58;;;;;;;2.63;2.35;;;13.00;99.90;;;;;;5023522;28;20037;-85
2023/08/05 02:09:24;;;;;;;3.80;2.58;;;13.00;99.90;;;;;;5016780;28;20391;-84
2023/08/05 02:11:49;;;;;;;3.97;3.00;;;13.10;99.90;;;;;;5025278;28;20502;-84
2023/08/05 02:14:15;;;;;;;3.00;2.80;;;13.00;99.90;;;;;;5022247;28;20017;-84
2023/08/05 02:16:41;;;;;;;4.38;3.20;;;13.10;99.90;;;;;;5025301;28;20504;-84
2023/08/05 02:19:07;;;;;;;4.35;2.70;;;13.10;99.90;;;;;;5023361;28;20022;-84
2023/08/05 02:21:32;;;;;;;5.70;3.22;;;13.10;99.90;;;;;;5018794;28;20054;-84
2023/08/05 02:23:58;;;;;;;9.27;3.53;;;13.10;99.90;;;;;;5023526;28;20729;-84
2023/08/05 02:26:24;;;;;;;7.85;3.13;;;13.10;99.90;;;;;;5020785;28;20021;-84
2023/08/05 02:28:49;;;;;;;4.57;2.97;;;13.20;99.90;;;;;;5028920;28;20079;-85
2023/08/05 02:31:16;;;;;;;3.78;2.78;;;13.20;99.90;;;;;;5023526;28;20087;-85
2023/08/05 02:33:41;;;;;;;3.30;2.70;;;13.20;99.90;;;;;;5024356;28;20030;-84
2023/08/05 02:36:07;;;;;;;6.97;2.97;;;13.20;99.90;;;;;;5022143;28;20085;-84
2023/08/05 02:38:33;;;;;;;5.18;3.60;;;13.20;99.90;;;;;;5020607;28;20125;-84
2023/08/05 02:40:59;;;;;;;5.53;2.90;;;13.20;99.90;;;;;;5024325;28;20392;-84
2023/08/05 02:43:25;;;;;;;3.30;2.67;;;13.20;99.90;;;;;;5018797;28;20029;-85
2023/08/05 02:45:55;;;;;;;5.32;2.90;;;13.20;99.90;;;;;;5024389;28;20616;-84
2023/08/05 02:48:21;;;;;;;5.50;2.60;;;13.20;99.90;;;;;;5019856;28;20108;-84
2023/08/05 02:50:47;;;;;;;2.50;2.30;;;13.20;99.90;;;;;;5026614;28;20539;-85
2023/08/05 02:53:12;;;;;;;4.95;2.85;;;13.10;99.90;;;;;;5016814;28;20026;-86
2023/08/05 02:55:38;;;;;;;3.40;2.45;;;13.10;99.90;;;;;;5016763;28;20026;-84
2023/08/05 02:58:03;;;;;;;2.92;2.30;;;13.10;99.90;;;;;;5024508;28;20029;-84
2023/08/05 03:00:29;;;;;;;4.20;3.13;;;13.00;99.90;;;;;;5019944;28;20045;-85
2023/08/05 03:02:55;;;;;;;7.60;2.72;;;13.00;99.90;;;;;;5024639;28;20030;-84
2023/08/05 03:05:20;;;;;;;4.18;2.67;;;12.90;99.90;;;;;;5022261;28;20116;-84
2023/08/05 03:07:46;;;;;;;5.45;3.08;;;13.00;99.90;;;;;;5027066;28;20496;-84
2023/08/05 03:10:11;;;;;;;5.05;2.50;;;12.90;99.90;;;;;;5026286;28;20032;-84
2023/08/05 03:12:37;;;;;;;3.88;2.80;;;12.90;99.90;;;;;;5026357;28;20392;-84
2023/08/05 03:15:03;;;;;;;3.45;2.83;;;12.90;99.90;;;;;;5024914;28;20021;-84
2023/08/05 03:17:28;;;;;;;4.45;2.67;;;12.80;99.90;;;;;;5028961;28;20660;-84
2023/08/05 03:19:54;;;;;;;4.18;2.63;;;12.80;99.90;;;;;;5023536;28;20532;-84
2023/08/05 03:22:20;;;;;;;6.40;3.15;;;12.80;99.90;;;;;;5026189;28;20037;-84
2023/08/05 03:24:45;;;;;;;3.63;2.72;;;12.80;99.90;;;;;;5025933;28;20025;-84
2023/08/05 03:27:11;;;;;;;4.70;2.53;;;12.90;99.90;;;;;;5018874;28;20025;-84
2023/08/05 03:29:36;;;;;;;5.10;2.88;;;12.90;99.90;;;;;;5018679;28;20026;-84
2023/08/05 03:32:02;;;;;;;3.65;2.65;;;12.90;99.90;;;;;;5026383;28;20033;-84
2023/08/05 03:34:29;;;;;;;4.80;2.90;;;12.90;99.90;;;;;;5030520;28;20033;-84
2023/08/05 03:36:55;;;;;;;5.30;2.83;;;12.90;99.90;;;;;;5023177;28;20026;-83
2023/08/05 03:39:20;;;;;;;4.28;2.90;;;12.90;99.90;;;;;;5025627;28;20112;-84
2023/08/05 03:41:46;;;;;;;4.15;2.65;;;13.00;99.90;;;;;;5024749;28;20017;-85
2023/08/05 03:44:12;;;;;;;4.60;2.95;;;13.00;99.90;;;;;;5024480;28;20025;-84
2023/08/05 03:46:38;;;;;;;3.08;2.75;;;13.00;99.90;;;;;;5027391;28;20064;-84
2023/08/05 03:49:06;;;;;;;4.20;3.05;;;13.00;99.90;;;;;;5024193;28;20086;-84
2023/08/05 03:51:32;;;;;;;3.28;2.67;;;13.00;99.90;;;;;;5027037;28;20079;-84
2023/08/05 03:53:58;;;;;;;5.50;3.30;;;13.10;99.90;;;;;;5021698;28;20030;-84
2023/08/05 03:56:26;;;;;;;6.03;2.90;;;13.10;99.90;;;;;;5030111;28;20029;-84
2023/08/05 03:58:54;;;;;;;4.55;2.97;;;13.10;99.90;;;;;;5024238;28;20025;-85
2023/08/05 04:01:21;;;;;;;7.97;2.90;;;13.10;99.90;;;;;;5027540;28;20508;-85
2023/08/05 04:03:51;;;;;;;3.92;2.72;;;13.10;99.90;;;;;;5024810;28;20484;-85
2023/08/05 04:06:19;;;;;;;3.47;2.97;;;13.10;99.90;;;;;;5020855;28;20029;-85
2023/08/05 04:08:44;;;;;;;5.43;2.83;;;13.20;99.90;;;;;;5024980;28;20774;-85
2023/08/05 04:11:10;;;;;;;5.88;2.70;;;13.20;99.90;;;;;;5012644;28;20038;-85
2023/08/05 04:13:39;;;;;;;6.80;3.17;;;13.20;99.90;;;;;;5022902;28;20037;-85
2023/08/05 04:16:06;;;;;;;4.38;2.60;;;13.20;99.90;;;;;;5028319;28;20048;-85
2023/08/05 04:18:35;;;;;;;4.75;2.80;;;13.20;99.90;;;;;;5022308;28;20029;-85
2023/08/05 04:21:03;;;;;;;5.35;2.65;;;13.20;99.90;;;;;;5022158;28;20036;-85
2023/08/05 04:23:31;;;;;;;5.07;2.72;;;13.30;99.90;;;;;;5022730;28;20049;-85
2023/08/05 04:25:59;;;;;;;5.07;2.63;;;13.30;99.90;;;;;;5024223;28;20026;-85
2023/08/05 04:28:24;;;;;;;3.60;2.92;;;13.30;99.90;;;;;;5026628;28;20056;-85
2023/08/05 04:30:51;;;;;;;3.60;2.65;;;13.30;99.90;;;;;;5022756;28;20056;-85
2023/08/05 04:33:16;;;;;;;3.95;2.70;;;13.30;99.90;;;;;;5027706;28;20112;-85
2023/08/05 04:35:50;;;;;;;6.28;3.22;;;13.40;99.90;;;;;;5023610;28;20506;-85
2023/08/05 04:38:19;;;;;;;4.63;2.67;;;13.40;99.90;;;;;;5021461;28;20108;-85
2023/08/05 04:40:45;;;;;;;5.00;3.00;;;13.50;99.90;;;;;;5024635;28;20033;-83
2023/08/05 04:43:11;;;;;;;7.70;2.75;;;13.50;99.90;;;;;;5019779;28;20032;-84
2023/08/05 04:45:37;;;;;;;5.85;2.88;;;13.50;99.90;;;;;;5022839;28;20014;-85
2023/08/05 04:48:05;;;;;;;4.82;2.35;;;13.50;99.90;;;;;;5023188;28;20034;-84
2023/08/05 04:50:31;;;;;;;5.25;2.83;;;13.40;99.90;;;;;;5024949;28;20046;-84
2023/08/05 04:52:57;;;;;;;5.72;3.13;;;13.40;99.90;;;;;;5024054;28;20502;-84
2023/08/05 04:55:22;;;;;;;3.78;2.38;;;13.40;99.90;;;;;;5018879;28;20028;-84
2023/08/05 04:57:55;;;;;;;7.20;3.15;;;13.50;99.90;;;;;;5024396;28;20017;-84
2023/08/05 05:00:20;;;;;;;5.13;2.50;;;13.50;99.90;;;;;;5020924;28;20033;-84
2023/08/05 05:02:48;;;;;;;7.05;2.55;;;13.50;99.90;;;;;;5017199;28;20132;-84
2023/08/05 05:05:13;;;;;;;5.18;2.85;;;13.50;99.90;;;;;;5022845;28;20128;-83
2023/08/05 05:07:39;;;;;;;5.38;3.13;;;13.60;99.90;;;;;;5025562;28;20085;-84
2023/08/05 05:10:05;;;;;;;7.28;2.78;;;13.60;99.90;;;;;;5024238;28;20036;-84
2023/08/05 05:12:31;;;;;;;4.63;3.10;;;13.60;99.90;;;;;;5022673;28;20454;-84
2023/08/05 05:14:57;;;;;;;4.85;2.58;;;13.70;99.90;;;;;;5021598;28;20536;-84
2023/08/05 05:17:22;;;;;;;5.15;2.88;;;13.70;99.90;;;;;;5025589;28;20025;-85
2023/08/05 05:19:48;;;;;;;4.55;3.53;;;13.70;99.90;;;;;;5022197;28;20025;-85
2023/08/05 05:22:18;;;;;;;3.90;2.65;;;13.80;99.90;;;;;;5027583;28;20333;-85
2023/08/05 05:24:45;;;;;;;2.78;2.58;;;13.80;99.90;;;;;;5023791;28;20036;-84
2023/08/05 05:27:13;;;;;;;4.05;2.33;;;13.90;99.90;;;;;;5019332;28;20055;-84
2023/08/05 05:29:39;;;;;;;6.00;2.78;;;13.90;99.90;;;;;;5023761;28;20096;-84
2023/08/05 05:32:05;;;;;;;6.82;2.83;;;14.00;99.90;;;;;;5020798;28;20033;-84
2023/08/05 05:34:31;;;;;;;6.38;3.22;;;14.00;99.90;;;;;;5024796;28;20528;-84
2023/08/05 05:36:57;;;;;;;9.20;3.50;;;14.10;99.90;;;;;;5019474;28;20117;-84
2023/08/05 05:39:22;;;;;;;5.50;3.95;;;14.10;99.90;;;;;;5023026;28;20358;-84
2023/08/05 05:41:48;;;;;;;5.13;3.30;;;14.20;99.90;;;;;;5019160;28;20040;-84
2023/08/05 05:44:14;;;;;;;5.22;3.35;;;14.30;99.90;;;;;;5017178;28;20514;-84
2023/08/05 05:46:40;;;;;;;6.82;3.15;;;14.40;99.90;;;;;;5019397;28;20049;-84
2023/08/05 05:49:06;;;;;;;4.72;3.47;;;14.50;99.90;;;;;;5020204;28;20148;-83
2023/08/05 05:51:32;;;;;;;8.13;3.72;;;14.60;99.90;;;;;;5025194;28;20026;-85
2023/08/05 05:53:58;;;;;;;5.35;3.08;;;14.80;99.90;;;;;;5018015;28;20026;-84
2023/08/05 05:56:23;;;;;;;6.03;2.80;;;14.80;99.90;;;;;;5023052;28;20025;-84
2023/08/05 05:58:50;;;;;;;6.97;2.88;;;14.90;99.90;;;;;;5021233;28;20527;-83
2023/08/05 06:01:16;;;;;;;2.80;2.40;;;15.00;99.90;;;;;;5022425;28;20045;-84
2023/08/05 06:03:42;;;;;;;6.22;2.83;;;15.00;99.90;;;;;;5023635;28;20066;-84
2023/08/05 06:06:07;;;;;;;5.25;2.47;;;15.10;99.90;;;;;;5021603;28;20546;-84
2023/08/05 06:08:34;;;;;;;4.35;2.50;;;15.10;99.90;;;;;;5024948;28;20049;-84
2023/08/05 06:11:03;;;;;;;3.65;2.20;;;15.10;99.90;;;;;;5017955;28;20073;-84
2023/08/05 06:13:29;;;;;;;6.10;2.05;;;15.20;99.90;;;;;;5012052;28;20400;-83
2023/08/05 06:15:55;;;;;;;3.65;2.45;;;15.20;99.90;;;;;;5026682;28;20021;-84
2023/08/05 06:18:21;;;;;;;7.00;2.45;;;15.20;99.90;;;;;;5020947;28;20028;-84
2023/08/05 06:20:48;;;;;;;8.57;2.42;;;15.30;99.90;;;;;;5020065;28;20021;-84
2023/08/05 06:23:14;;;;;;;5.40;2.25;;;15.40;99.90;;;;;;5014030;28;20023;-83
2023/08/05 06:25:39;;;;;;;7.50;2.95;;;15.40;99.90;;;;;;5017991;28;20022;-83
2023/08/05 06:28:05;;;;;;;6.22;2.72;;;15.40;99.90;;;;;;5020886;28;20419;-83
2023/08/05 06:30:31;;;;;;;4.35;2.65;;;15.50;99.90;;;;;;5011582;28;20109;-84
2023/08/05 06:32:57;;;;;;;4.22;2.63;;;15.50;99.90;;;;;;5027432;28;20071;-83
2023/08/05 06:35:22;;;;;;;6.65;2.75;;;15.60;99.90;;;;;;5019438;28;20013;-84
2023/08/05 06:37:48;;;;;;;4.32;2.30;;;15.60;99.90;;;;;;5020178;28;20021;-85
2023/08/05 06:40:13;;;;;;;2.30;2.10;;;15.70;99.90;;;;;;5023872;28;20160;-84
2023/08/05 06:42:39;;;;;;;5.57;2.63;;;15.80;99.90;;;;;;5023485;28;20446;-84
2023/08/05 06:45:05;;;;;;;3.67;2.42;;;15.90;99.90;;;;;;5029008;28;20111;-83
2023/08/05 06:47:31;;;;;;;3.92;2.40;;;16.00;99.90;;;;;;5021791;28;20025;-84
2023/08/05 06:50:00;;;;;;;6.60;2.63;;;16.10;99.90;;;;;;5029875;28;20025;-84
2023/08/05 06:52:25;;;;;;;5.30;2.80;;;16.20;99.90;;;;;;5022576;28;20048;-84
2023/08/05 06:54:51;;;;;;;5.00;2.22;;;16.30;99.90;;;;;;5023280;28;20476;-84
2023/08/05 06:57:16;;;;;;;3.35;2.30;;;16.50;99.90;;;;;;5027358;28;20026;-84
2023/08/05 06:59:42;;;;;;;7.10;2.85;;;16.50;99.90;;;;;;5013099;28;20392;-85
2023/08/05 07:02:07;;;;;;;4.80;2.38;;;16.70;99.90;;;;;;5023696;28;20041;-86
2023/08/05 07:04:33;;;;;;;3.40;2.50;;;16.80;99.90;;;;;;5020241;28;20026;-84
2023/08/05 07:06:59;;;;;;;3.83;2.03;;;17.00;99.90;;;;;;5030379;28;20116;-84
2023/08/05 07:09:25;;;;;;;5.70;2.50;;;17.00;99.90;;;;;;5022759;28;20104;-85
2023/08/05 07:11:51;;;;;;;2.50;1.85;;;17.20;99.90;;;;;;5022935;28;20530;-84
2023/08/05 07:14:16;;;;;;;6.28;2.63;;;17.30;99.90;;;;;;5023991;28;20018;-84
2023/08/05 07:16:42;;;;;;;6.97;2.55;;;17.40;99.90;;;;;;5027442;28;20018;-84
2023/08/05 07:19:07;;;;;;;4.53;2.00;;;17.50;99.90;;;;;;5024444;28;20064;-83
2023/08/05 07:21:33;;;;;;;5.90;2.30;;;17.60;99.90;;;;;;5014396;28;20744;-84
2023/08/05 07:23:59;;;;;;;2.63;1.85;;;17.70;99.90;;;;;;5025420;28;20025;-84
2023/08/05 07:26:24;;;;;;;4.32;2.10;;;17.90;99.90;;;;;;5024779;28;20037;-84
2023/08/05 07:28:50;;;;;;;3.80;1.85;;;18.00;99.90;;;;;;5026939;28;20076;-86
2023/08/05 07:31:16;;;;;;;4.70;1.85;;;18.10;99.90;;;;;;5024194;28;20045;-85
2023/08/05 07:33:46;;;;;;;2.95;1.50;;;18.30;99.90;;;;;;5024428;28;20397;-85
2023/08/05 07:36:17;;;;;;;4.30;2.17;;;18.40;99.90;;;;;;5025716;28;20026;-84
2023/08/05 07:38:45;;;;;;;3.70;2.45;;;18.50;99.90;;;;;;5019219;28;20022;-85
2023/08/05 07:41:20;;;;;;;6.65;2.20;;;18.70;99.90;;;;;;5020241;28;20026;-84
2023/08/05 07:43:45;;;;;;;4.20;1.92;;;18.80;99.90;;;;;;5021718;28;20030;-85
2023/08/05 07:46:13;;;;;;;4.43;2.28;;;18.90;99.90;;;;;;5026697;28;20048;-84
2023/08/05 07:48:39;;;;;;;3.13;1.73;;;19.10;99.90;;;;;;5021317;28;20051;-84
2023/08/05 07:51:08;;;;;;;5.88;2.00;;;19.20;99.90;;;;;;5027618;28;20029;-84
2023/08/05 07:53:37;;;;;;;1.65;1.25;;;19.30;99.90;;;;;;5023699;28;20028;-83
2023/08/05 07:56:10;;;;;;;3.47;1.77;;;19.50;99.90;;;;;;5021679;28;20119;-84
2023/08/05 07:58:46;;;;;;;4.30;1.33;;;19.70;99.90;;;;;;5024652;28;20025;-85
2023/08/05 08:01:21;;;;;;;3.47;1.92;;;19.90;99.90;;;;;;5022489;28;20618;-85
2023/08/05 08:03:48;;;;;;;3.67;1.25;;;20.10;99.90;;;;;;5024721;28;20529;-85
2023/08/05 08:06:15;;;;;;;3.15;1.33;;;20.20;99.90;;;;;;5024334;28;20033;-84
2023/08/05 08:08:45;;;;;;;3.35;1.30;;;20.30;99.90;;;;;;5018095;28;20030;-84
2023/08/05 08:11:11;;;;;;;5.00;2.13;;;20.20;99.90;;;;;;5019085;28;20620;-85
2023/08/05 08:13:37;;;;;;;2.60;1.40;;;20.10;99.90;;;;;;5022547;28;20673;-85
2023/08/05 08:16:03;;;;;;;3.40;1.40;;;20.10;99.90;;;;;;5030109;28;20026;-85
2023/08/05 08:18:28;;;;;;;3.25;1.70;;;20.20;99.90;;;;;;5016513;28;20121;-83
2023/08/05 08:20:54;;;;;;;3.25;1.23;;;20.30;99.90;;;;;;5021856;28;20645;-84
2023/08/05 08:23:20;;;;;;;1.40;1.00;;;20.20;99.90;;;;;;5023728;28;20018;-85
2023/08/05 08:25:46;;;;;;;1.20;1.15;;;20.20;99.90;;;;;;5021014;28;20520;-85
2023/08/05 08:28:11;;;;;;;5.60;1.50;;;20.20;99.90;;;;;;5025832;28;20128;-84
2023/08/05 08:30:37;;;;;;;2.85;1.20;;;20.20;99.90;;;;;;5020791;28;20103;-85
2023/08/05 08:33:03;;;;;;;4.60;1.50;;;20.20;99.90;;;;;;5029391;28;20035;-85
2023/08/05 08:35:29;;;;;;;2.03;1.10;;;20.10;99.90;;;;;;5013240;28;20026;-84
2023/08/05 08:37:55;;;;;;;3.13;1.48;;;19.90;99.90;;;;;;5021191;28;20022;-84
2023/08/05 08:40:21;;;;;;;3.40;1.75;;;19.80;99.90;;;;;;5019160;28;20022;-83
2023/08/05 08:42:49;;;;;;;2.10;1.15;;;19.70;99.90;;;;;;5021171;28;20018;-84
2023/08/05 08:45:17;;;;;;;2.42;1.50;;;19.60;99.90;;;;;;5021586;28;20817;-83
2023/08/05 08:47:44;;;;;;;2.22;1.45;;;19.30;99.90;;;;;;5021140;28;20024;-84
2023/08/05 08:50:11;;;;;;;2.47;1.40;;;19.20;99.90;;;;;;5024351;28;20037;-84
2023/08/05 08:52:38;;;;;;;2.30;1.27;;;19.10;99.90;;;;;;5022363;28;20070;-84
2023/08/05 08:55:03;;;;;;;2.38;2.05;;;19.10;99.90;;;;;;5021985;28;20101;-84
2023/08/05 08:57:29;;;;;;;3.25;1.50;;;19.00;99.90;;;;;;5022730;28;20113;-84
2023/08/05 08:59:56;;;;;;;2.92;1.65;;;19.10;99.90;;;;;;5022145;28;20026;-84
2023/08/05 09:02:24;;;;;;;3.63;2.08;;;19.00;99.90;;;;;;5024541;28;20452;-84
2023/08/05 09:04:54;;;;;;;1.77;1.20;;;19.00;99.90;;;;;;5027496;28;20031;-85
2023/08/05 09:07:25;;;;;;;1.52;1.42;;;19.10;99.90;;;;;;5025850;28;20108;-85
2023/08/05 09:09:51;;;;;;;3.47;1.45;;;19.30;99.90;;;;;;5015134;28;20133;-85
2023/08/05 09:12:17;;;;;;;3.15;1.52;;;19.40;99.90;;;;;;5020723;28;20029;-83
2023/08/05 09:14:43;;;;;;;3.78;1.42;;;19.30;99.90;;;;;;5021429;28;20026;-85
2023/08/05 09:17:14;;;;;;;1.55;1.45;;;19.40;99.90;;;;;;5020212;28;20109;-85
2023/08/05 09:19:44;;;;;;;3.28;1.50;;;19.60;99.90;;;;;;5016898;28;20033;-84
2023/08/05 09:22:09;;;;;;;2.20;1.30;;;19.90;99.90;;;;;;5020773;28;20037;-84
2023/08/05 09:24:35;;;;;;;3.08;1.83;;;20.00;99.90;;;;;;5022156;28;20028;-85
2023/08/05 09:27:01;;;;;;;4.82;1.67;;;20.10;99.90;;;;;;5014149;28;20116;-85
2023/08/05 09:29:27;;;;;;;2.72;1.90;;;20.10;99.90;;;;;;5025867;28;20029;-85
2023/08/05 09:32:00;;;;;;;2.85;1.83;;;20.00;99.90;;;;;;5020823;28;20526;-85
2023/08/05 09:34:38;;;;;;;3.90;1.83;;;20.00;99.90;;;;;;5007703;28;20049;-84
2023/08/05 09:37:07;;;;;;;2.60;1.40;;;19.90;99.90;;;;;;5016900;28;20569;-84
2023/08/05 09:39:47;;;;;;;4.13;1.40;;;19.90;99.90;;;;;;5024441;28;20026;-85
2023/08/05 09:42:28;;;;;;;2.40;1.80;;;19.90;99.90;;;;;;5017586;28;20109;-84
2023/08/05 09:44:58;;;;;;;1.70;1.60;;;19.90;99.90;;;;;;5021030;28;20029;-84
2023/08/05 09:47:30;;;;;;;3.85;2.00;;;20.00;99.90;;;;;;5017525;28;20026;-85
2023/08/05 09:49:59;;;;;;;1.88;1.20;;;20.20;99.90;;;;;;5025903;28;20079;-84
2023/08/05 09:52:26;;;;;;;2.40;1.33;;;20.40;99.90;;;;;;5018081;28;20018;-83
2023/08/05 09:55:04;;;;;;;2.97;1.35;;;20.60;99.90;;;;;;5017514;28;20025;-82
2023/08/05 09:57:30;;;;;;;2.03;1.80;;;20.70;99.90;;;;;;5018991;28;20022;-81
2023/08/05 10:00:00;;;;;;;1.45;1.35;;;20.90;99.90;;;;;;5020002;28;20095;-82
2023/08/05 10:02:26;;;;;;;4.28;1.50;;;21.10;99.90;;;;;;5018568;28;20503;-82
2023/08/05 10:04:56;;;;;;;2.70;1.60;;;21.20;99.90;;;;;;5020178;28;20025;-82
2023/08/05 10:07:24;;;;;;;2.38;1.48;;;21.10;99.90;;;;;;5022245;28;20032;-82
2023/08/05 10:09:50;;;;;;;4.25;1.55;;;21.00;99.90;;;;;;5022728;28;20068;-82
2023/08/05 10:12:28;;;;;;;2.22;1.40;;;21.10;99.90;;;;;;5019767;28;20053;-81
2023/08/05 10:14:57;;;;;;;3.97;1.60;;;21.10;99.90;;;;;;5016793;28;20037;-82
2023/08/05 10:17:23;;;;;;;3.13;1.60;;;21.10;99.90;;;;;;5027452;28;20029;-81
2023/08/05 10:19:52;;;;;;;3.17;1.60;;;21.20;99.90;;;;;;5017655;28;20241;-83
2023/08/05 10:22:23;;;;;;;2.35;1.55;;;21.30;99.90;;;;;;5024792;28;20025;-85
2023/08/05 10:24:54;;;;;;;2.35;1.63;;;21.30;99.90;;;;;;5014802;28;20042;-84
2023/08/05 10:27:43;;;;;;;2.40;1.70;;;21.30;99.90;;;;;;5024351;28;20026;-86
2023/08/05 10:30:15;;;;;;;1.40;1.30;;;21.40;99.90;;;;;;5018459;28;20064;-85
2023/08/05 10:32:50;;;;;;;5.57;1.67;;;21.30;99.90;;;;;;5028604;28;20064;-82
2023/08/05 10:35:38;;;;;;;1.73;1.50;;;21.30;99.90;;;;;;5022842;28;20033;-84
2023/08/05 10:38:08;;;;;;;4.05;1.52;;;21.20;99.90;;;;;;5019475;28;20515;-85
2023/08/05 10:40:39;;;;;;;2.40;1.73;;;21.20;99.90;;;;;;5023412;28;20443;-83
2023/08/05 10:43:05;;;;;;;3.42;1.73;;;21.00;99.90;;;;;;5021945;28;20057;-83
2023/08/05 10:45:35;;;;;;;2.35;1.73;;;21.00;99.90;;;;;;5023154;28;20021;-84
2023/08/05 10:48:06;;;;;;;3.50;1.80;;;20.90;99.90;;;;;;5023484;28;20031;-82
2023/08/05 10:50:39;;;;;;;3.08;1.58;;;20.90;99.90;;;;;;5025901;28;20366;-84
2023/08/05 10:53:07;;;;;;;2.17;1.65;;;20.80;99.90;;;;;;5023644;28;20018;-83
2023/08/05 10:55:46;;;;;;;1.55;1.30;;;20.90;99.90;;;;;;5019415;28;20022;-83
2023/08/05 10:58:11;;;;;;;6.15;1.77;;;20.90;99.90;;;;;;5026256;28;20048;-83
2023/08/05 11:00:42;;;;;;;2.90;1.77;;;21.00;99.90;;;;;;5020590;28;20489;-84
2023/08/05 11:03:41;;;;;;;4.10;2.10;;;21.00;99.90;;;;;;5020004;28;20105;-82
2023/08/05 11:06:08;;;;;;;3.00;1.73;;;21.00;99.90;;;;;;5033520;28;20028;-84
2023/08/05 11:08:35;;;;;;;2.70;1.67;;;21.00;99.90;;;;;;5026990;28;20192;-83
2023/08/05 11:11:07;;;;;;;3.08;1.95;;;21.10;99.90;;;;;;5019634;28;20057;-84
2023/08/05 11:13:34;;;;;;;1.92;1.70;;;21.10;99.90;;;;;;5021339;28;20029;-83
2023/08/05 11:16:03;;;;;;;4.30;1.70;;;21.10;99.90;;;;;;5028652;28;20025;-83
2023/08/05 11:18:29;;;;;;;2.17;1.50;;;21.20;99.90;;;;;;5016377;28;20030;-84
2023/08/05 11:20:59;;;;;;;3.65;1.98;;;21.20;99.90;;;;;;5018270;28;20467;-85
2023/08/05 11:23:25;;;;;;;2.65;1.92;;;21.20;99.90;;;;;;5014737;28;20030;-84
2023/08/05 11:25:54;;;;;;;3.33;1.70;;;21.30;99.90;;;;;;5021328;28;20124;-85
2023/08/05 11:28:21;;;;;;;2.30;2.10;;;21.40;99.90;;;;;;5023731;28;20025;-84
2023/08/05 11:30:47;;;;;;;4.97;1.77;;;21.40;99.90;;;;;;5013521;28;20103;-84
2023/08/05 11:33:13;;;;;;;1.52;1.42;;;21.40;99.90;;;;;;5026176;28;20034;-81
2023/08/05 11:35:45;;;;;;;3.10;1.52;;;21.50;99.90;;;;;;5021269;28;20552;-83
2023/08/05 11:38:23;;;;;;;7.03;1.70;;;21.50;99.90;;;;;;5020635;28;20022;-83
2023/08/05 11:40:55;;;;;;;3.00;1.80;;;21.40;99.90;;;;;;5024014;28;20037;-83
2023/08/05 11:43:22;;;;;;;3.53;1.73;;;21.30;99.90;;;;;;5021940;28;20500;-84
2023/08/05 11:45:54;;;;;;;2.08;1.83;;;21.20;99.90;;;;;;5022898;28;20041;-84
2023/08/05 11:48:20;;;;;;;2.45;2.03;;;21.20;99.90;;;;;;5022628;28;20044;-83
2023/08/05 11:50:47;;;;;;;1.80;1.70;;;21.10;99.90;;;;;;5026035;28;20480;-84
2023/08/05 11:53:13;;;;;;;2.67;1.88;;;21.10;99.90;;;;;;5022598;28;20033;-84
2023/08/05 11:55:39;;;;;;;2.95;1.65;;;21.10;99.90;;;;;;5017853;28;20080;-83
2023/08/05 11:58:06;;;;;;;1.65;1.55;;;21.10;99.90;;;;;;5024178;28;20055;-82
2023/08/05 12:00:32;;;;;;;3.80;1.75;;;21.10;99.90;;;;;;5020119;28;20060;-84
2023/08/05 12:02:59;;;;;;;1.70;1.60;;;21.10;99.90;;;;;;5024682;28;20480;-84
2023/08/05 12:05:24;;;;;;;1.65;1.52;;;21.10;99.90;;;;;;5020750;28;20060;-83
2023/08/05 12:07:50;;;;;;;2.47;2.08;;;21.10;99.90;;;;;;5022459;28;20055;-84
2023/08/05 12:10:18;;;;;;;2.30;1.92;;;21.20;99.90;;;;;;5023031;28;20017;-82
2023/08/05 12:12:48;;;;;;;5.57;1.75;;;21.40;99.90;;;;;;5018533;28;20047;-84
2023/08/05 12:15:25;;;;;;;3.15;1.83;;;21.50;99.90;;;;;;5021724;28;20018;-84
2023/08/05 12:17:57;;;;;;;2.63;1.77;;;21.70;99.90;;;;;;5011870;28;20032;-84
2023/08/05 12:20:25;;;;;;;3.42;1.65;;;21.70;99.90;;;;;;5017009;28;20021;-85
2023/08/05 12:22:54;;;;;;;2.55;1.10;;;21.80;99.90;;;;;;5026095;28;20061;-81
2023/08/05 12:25:20;;;;;;;3.63;1.52;;;21.70;99.90;;;;;;5017544;28;20107;-83
2023/08/05 12:27:46;;;;;;;3.70;1.17;;;21.80;99.90;;;;;;5025803;28;20026;-82
2023/08/05 12:30:13;;;;;;;1.45;1.20;;;21.80;99.90;;;;;;5013778;28;20053;-82
2023/08/05 12:32:39;;;;;;;2.45;1.35;;;21.70;99.90;;;;;;5026386;28;20035;-85
2023/08/05 12:35:07;;;;;;;1.40;1.30;;;21.60;99.90;;;;;;5022400;28;20026;-84
2023/08/05 12:37:35;;;;;;;1.73;1.25;;;21.50;99.90;;;;;;5016969;28;20350;-82
2023/08/05 12:40:04;;;;;;;2.95;2.03;;;21.40;99.90;;;;;;5023654;28;20022;-83
2023/08/05 12:42:30;;;;;;;1.23;1.10;;;21.40;99.90;;;;;;5018355;28;20022;-83
2023/08/05 12:44:59;;;;;;;2.72;1.30;;;21.30;99.90;;;;;;5022746;28;20033;-84
2023/08/05 12:47:24;;;;;;;2.28;1.27;;;21.30;99.90;;;;;;5012669;28;20389;-84
2023/08/05 12:49:50;;;;;;;2.28;1.17;;;21.30;99.90;;;;;;5023937;28;20034;-85